sensor_id;sensor_type;location;lat;lon;timestamp;pressure;altitude;pressure_sealevel;temperature;humidity
8705;BME280;4389;41.932;25.904;2023-02-13T00:00:18;102587.44;;;-1.07;88.69
8705;BME280;4389;41.932;25.904;2023-02-13T00:02:45;102586.59;;;-1.12;88.21
8705;BME280;4389;41.932;25.904;2023-02-13T00:05:12;102588.38;;;-1.22;89.20
8705;BME280;4389;41.932;25.904;2023-02-13T00:07:39;102595.38;;;-1.30;89.08
8705;BME280;4389;41.932;25.904;2023-02-13T00:10:07;102594.63;;;-1.50;89.48
8705;BME280;4389;41.932;25.904;2023-02-13T00:12:34;102598.06;;;-1.42;89.59
8705;BME280;4389;41.932;25.904;2023-02-13T00:15:01;102592.03;;;-1.48;89.56
8705;BME280;4389;41.932;25.904;2023-02-13T00:17:31;102591.97;;;-1.39;89.77
8705;BME280;4389;41.932;25.904;2023-02-13T00:19:58;102599.75;;;-1.38;89.35
8705;BME280;4389;41.932;25.904;2023-02-13T00:22:25;102600.69;;;-1.49;89.43
8705;BME280;4389;41.932;25.904;2023-02-13T00:24:52;102598.09;;;-1.49;89.37
8705;BME280;4389;41.932;25.904;2023-02-13T00:27:19;102600.75;;;-1.67;89.76
8705;BME280;4389;41.932;25.904;2023-02-13T00:29:45;102599.97;;;-1.81;90.72
8705;BME280;4389;41.932;25.904;2023-02-13T00:32:13;102596.47;;;-1.74;91.51
8705;BME280;4389;41.932;25.904;2023-02-13T00:34:41;102599.91;;;-1.62;91.15
8705;BME280;4389;41.932;25.904;2023-02-13T00:37:09;102595.56;;;-1.64;90.99
8705;BME280;4389;41.932;25.904;2023-02-13T00:39:36;102593.84;;;-1.62;90.48
8705;BME280;4389;41.932;25.904;2023-02-13T00:42:03;102599.09;;;-1.77;91.26
8705;BME280;4389;41.932;25.904;2023-02-13T00:44:30;102590.47;;;-1.79;91.26
8705;BME280;4389;41.932;25.904;2023-02-13T00:46:57;102586.13;;;-1.76;91.36
8705;BME280;4389;41.932;25.904;2023-02-13T00:49:24;102586.16;;;-1.82;91.47
8705;BME280;4389;41.932;25.904;2023-02-13T00:51:52;102589.56;;;-1.72;91.63
8705;BME280;4389;41.932;25.904;2023-02-13T00:54:19;102581.75;;;-1.69;91.79
8705;BME280;4389;41.932;25.904;2023-02-13T00:56:46;102593.00;;;-1.70;91.11
8705;BME280;4389;41.932;25.904;2023-02-13T00:59:13;102590.38;;;-1.67;90.93
8705;BME280;4389;41.932;25.904;2023-02-13T01:01:39;102592.97;;;-1.60;90.74
8705;BME280;4389;41.932;25.904;2023-02-13T01:04:06;102600.81;;;-1.73;90.44
8705;BME280;4389;41.932;25.904;2023-02-13T01:06:33;102596.59;;;-1.98;90.59
8705;BME280;4389;41.932;25.904;2023-02-13T01:09:02;102595.75;;;-2.00;90.67
8705;BME280;4389;41.932;25.904;2023-02-13T01:11:29;102588.88;;;-2.19;91.08
8705;BME280;4389;41.932;25.904;2023-02-13T01:13:56;102595.81;;;-2.21;91.67
8705;BME280;4389;41.932;25.904;2023-02-13T01:16:23;102588.94;;;-2.37;92.31
8705;BME280;4389;41.932;25.904;2023-02-13T01:18:50;102594.13;;;-2.37;92.59
8705;BME280;4389;41.932;25.904;2023-02-13T01:21:18;102601.03;;;-2.36;92.37
8705;BME280;4389;41.932;25.904;2023-02-13T01:23:46;102593.22;;;-2.29;92.04
8705;BME280;4389;41.932;25.904;2023-02-13T01:26:16;102594.06;;;-2.31;91.51
8705;BME280;4389;41.932;25.904;2023-02-13T01:28:44;102600.16;;;-2.37;91.56
8705;BME280;4389;41.932;25.904;2023-02-13T01:31:11;102609.66;;;-2.55;91.89
8705;BME280;4389;41.932;25.904;2023-02-13T01:33:38;102607.94;;;-2.46;91.94
8705;BME280;4389;41.932;25.904;2023-02-13T01:36:06;102602.75;;;-2.53;91.97
8705;BME280;4389;41.932;25.904;2023-02-13T01:38:33;102614.84;;;-2.52;92.05
8705;BME280;4389;41.932;25.904;2023-02-13T01:41:00;102596.72;;;-2.60;92.18
8705;BME280;4389;41.932;25.904;2023-02-13T01:43:45;102604.50;;;-2.67;92.42
8705;BME280;4389;41.932;25.904;2023-02-13T01:46:15;102601.06;;;-2.66;92.44
8705;BME280;4389;41.932;25.904;2023-02-13T01:48:43;102599.31;;;-2.49;92.50
8705;BME280;4389;41.932;25.904;2023-02-13T01:51:13;102604.47;;;-2.37;92.43
8705;BME280;4389;41.932;25.904;2023-02-13T01:53:44;102592.41;;;-2.44;92.14
8705;BME280;4389;41.932;25.904;2023-02-13T01:56:15;102604.50;;;-2.64;92.11
8705;BME280;4389;41.932;25.904;2023-02-13T01:58:47;102592.41;;;-2.53;92.20
8705;BME280;4389;41.932;25.904;2023-02-13T02:01:15;102595.00;;;-2.50;92.09
8705;BME280;4389;41.932;25.904;2023-02-13T02:03:45;102593.25;;;-2.50;91.87
8705;BME280;4389;41.932;25.904;2023-02-13T02:06:18;102582.06;;;-2.65;92.14
8705;BME280;4389;41.932;25.904;2023-02-13T02:08:49;102603.63;;;-2.60;92.51
8705;BME280;4389;41.932;25.904;2023-02-13T02:11:23;102592.41;;;-2.95;92.67
8705;BME280;4389;41.932;25.904;2023-02-13T02:13:54;102595.88;;;-3.08;93.37
8705;BME280;4389;41.932;25.904;2023-02-13T02:16:23;102610.53;;;-2.95;94.11
8705;BME280;4389;41.932;25.904;2023-02-13T02:18:51;102611.41;;;-2.99;95.33
8705;BME280;4389;41.932;25.904;2023-02-13T02:21:45;102609.69;;;-3.00;94.67
8705;BME280;4389;41.932;25.904;2023-02-13T02:27:57;102630.41;;;-2.94;95.07
8705;BME280;4389;41.932;25.904;2023-02-13T02:30:47;102627.81;;;-3.02;95.01
8705;BME280;4389;41.932;25.904;2023-02-13T02:33:29;102639.03;;;-2.83;95.09
8705;BME280;4389;41.932;25.904;2023-02-13T02:36:08;102635.56;;;-2.78;94.53
8705;BME280;4389;41.932;25.904;2023-02-13T02:38:48;102624.34;;;-2.81;94.39
8705;BME280;4389;41.932;25.904;2023-02-13T02:41:34;102639.03;;;-2.89;94.21
8705;BME280;4389;41.932;25.904;2023-02-13T02:44:16;102630.41;;;-2.85;94.42
8705;BME280;4389;41.932;25.904;2023-02-13T02:46:57;102633.00;;;-2.73;94.21
8705;BME280;4389;41.932;25.904;2023-02-13T02:49:53;102635.56;;;-2.88;93.38
8705;BME280;4389;41.932;25.904;2023-02-13T02:52:34;102644.19;;;-2.98;92.81
8705;BME280;4389;41.932;25.904;2023-02-13T02:55:09;102656.22;;;-3.18;93.07
8705;BME280;4389;41.932;25.904;2023-02-13T02:57:42;102659.66;;;-3.16;93.57
8705;BME280;4389;41.932;25.904;2023-02-13T03:00:31;102663.13;;;-3.20;93.55
8705;BME280;4389;41.932;25.904;2023-02-13T03:03:19;102651.88;;;-3.36;93.24
8705;BME280;4389;41.932;25.904;2023-02-13T03:06:11;102661.44;;;-3.20;93.14
8705;BME280;4389;41.932;25.904;2023-02-13T03:08:41;102661.34;;;-3.39;93.34
8705;BME280;4389;41.932;25.904;2023-02-13T03:11:26;102656.19;;;-3.42;94.05
8705;BME280;4389;41.932;25.904;2023-02-13T03:14:14;102653.59;;;-3.33;94.58
8705;BME280;4389;41.932;25.904;2023-02-13T03:16:42;102663.13;;;-3.29;94.31
8705;BME280;4389;41.932;25.904;2023-02-13T03:19:37;102670.03;;;-3.22;94.34
8705;BME280;4389;41.932;25.904;2023-02-13T03:22:33;102663.16;;;-3.11;94.21
8705;BME280;4389;41.932;25.904;2023-02-13T03:25:10;102667.47;;;-3.10;94.10
8705;BME280;4389;41.932;25.904;2023-02-13T03:27:44;102670.97;;;-2.89;93.65
8705;BME280;4389;41.932;25.904;2023-02-13T03:30:38;102673.53;;;-2.99;93.36
8705;BME280;4389;41.932;25.904;2023-02-13T03:33:28;102673.56;;;-2.87;92.86
8705;BME280;4389;41.932;25.904;2023-02-13T03:36:03;102676.13;;;-2.95;92.88
8705;BME280;4389;41.932;25.904;2023-02-13T03:38:54;102677.84;;;-2.88;92.77
8705;BME280;4389;41.932;25.904;2023-02-13T03:41:26;102670.09;;;-2.83;92.84
8705;BME280;4389;41.932;25.904;2023-02-13T03:44:03;102677.88;;;-2.74;92.50
8705;BME280;4389;41.932;25.904;2023-02-13T03:46:37;102674.41;;;-2.67;91.48
8705;BME280;4389;41.932;25.904;2023-02-13T03:49:09;102681.31;;;-2.74;91.51
8705;BME280;4389;41.932;25.904;2023-02-13T03:51:58;102675.28;;;-2.77;91.27
8705;BME280;4389;41.932;25.904;2023-02-13T03:54:34;102687.34;;;-2.85;90.86
8705;BME280;4389;41.932;25.904;2023-02-13T03:57:22;102683.88;;;-2.96;91.53
8705;BME280;4389;41.932;25.904;2023-02-13T04:00:10;102683.03;;;-2.92;91.58
8705;BME280;4389;41.932;25.904;2023-02-13T04:02:54;102678.75;;;-2.78;92.00
8705;BME280;4389;41.932;25.904;2023-02-13T04:05:25;102680.47;;;-2.77;91.42
8705;BME280;4389;41.932;25.904;2023-02-13T04:07:56;102691.66;;;-2.80;91.52
8705;BME280;4389;41.932;25.904;2023-02-13T04:10:26;102699.44;;;-2.87;91.66
8705;BME280;4389;41.932;25.904;2023-02-13T04:13:04;102691.66;;;-2.84;91.44
8705;BME280;4389;41.932;25.904;2023-02-13T04:15:37;102688.22;;;-2.86;91.60
8705;BME280;4389;41.932;25.904;2023-02-13T04:18:09;102683.91;;;-2.89;91.46
8705;BME280;4389;41.932;25.904;2023-02-13T04:20:39;102687.34;;;-2.88;91.47
8705;BME280;4389;41.932;25.904;2023-02-13T04:23:07;102690.78;;;-2.95;91.42
8705;BME280;4389;41.932;25.904;2023-02-13T04:25:37;102688.97;;;-3.26;91.18
8705;BME280;4389;41.932;25.904;2023-02-13T04:28:05;102684.69;;;-3.26;91.67
8705;BME280;4389;41.932;25.904;2023-02-13T04:30:32;102678.69;;;-3.14;92.18
8705;BME280;4389;41.932;25.904;2023-02-13T04:32:59;102683.00;;;-3.13;92.25
8705;BME280;4389;41.932;25.904;2023-02-13T04:35:26;102682.16;;;-3.06;92.27
8705;BME280;4389;41.932;25.904;2023-02-13T04:37:53;102679.56;;;-3.00;91.81
8705;BME280;4389;41.932;25.904;2023-02-13T04:40:20;102686.44;;;-3.02;91.66
8705;BME280;4389;41.932;25.904;2023-02-13T04:42:48;102681.16;;;-3.50;91.14
8705;BME280;4389;41.932;25.904;2023-02-13T04:45:15;102687.16;;;-3.57;92.84
8705;BME280;4389;41.932;25.904;2023-02-13T04:47:45;102695.81;;;-3.49;93.63
8705;BME280;4389;41.932;25.904;2023-02-13T04:50:15;102705.31;;;-3.42;93.85
8705;BME280;4389;41.932;25.904;2023-02-13T04:52:42;102708.75;;;-3.43;93.61
8705;BME280;4389;41.932;25.904;2023-02-13T04:55:09;102708.78;;;-3.39;92.97
8705;BME280;4389;41.932;25.904;2023-02-13T04:57:36;102713.06;;;-3.42;93.01
8705;BME280;4389;41.932;25.904;2023-02-13T05:00:05;102713.06;;;-3.39;92.72
8705;BME280;4389;41.932;25.904;2023-02-13T05:02:32;102711.34;;;-3.40;92.37
8705;BME280;4389;41.932;25.904;2023-02-13T05:04:59;102711.38;;;-3.39;92.54
8705;BME280;4389;41.932;25.904;2023-02-13T05:07:26;102713.97;;;-3.37;92.48
8705;BME280;4389;41.932;25.904;2023-02-13T05:09:53;102717.47;;;-3.25;92.37
8705;BME280;4389;41.932;25.904;2023-02-13T05:12:20;102720.88;;;-3.24;92.03
8705;BME280;4389;41.932;25.904;2023-02-13T05:14:46;102709.66;;;-3.35;91.72
8705;BME280;4389;41.932;25.904;2023-02-13T05:17:15;102712.25;;;-3.26;91.74
8705;BME280;4389;41.932;25.904;2023-02-13T05:19:41;102716.56;;;-3.28;91.49
8705;BME280;4389;41.932;25.904;2023-02-13T05:22:08;102723.47;;;-3.29;90.90
8705;BME280;4389;41.932;25.904;2023-02-13T05:24:53;102730.34;;;-3.35;90.59
8705;BME280;4389;41.932;25.904;2023-02-13T05:27:20;102732.00;;;-3.49;90.48
8705;BME280;4389;41.932;25.904;2023-02-13T05:29:47;102734.59;;;-3.49;90.74
8705;BME280;4389;41.932;25.904;2023-02-13T05:32:16;102735.50;;;-3.41;90.54
8705;BME280;4389;41.932;25.904;2023-02-13T05:34:42;102743.31;;;-3.31;90.49
8705;BME280;4389;41.932;25.904;2023-02-13T05:37:09;102737.31;;;-3.22;90.45
8705;BME280;4389;41.932;25.904;2023-02-13T05:39:36;102737.28;;;-3.27;89.64
8705;BME280;4389;41.932;25.904;2023-02-13T05:42:03;102738.16;;;-3.17;89.75
8705;BME280;4389;41.932;25.904;2023-02-13T05:44:30;102740.75;;;-3.17;89.37
8705;BME280;4389;41.932;25.904;2023-02-13T05:46:57;102742.47;;;-3.19;89.35
8705;BME280;4389;41.932;25.904;2023-02-13T05:49:25;102742.44;;;-3.25;89.48
8705;BME280;4389;41.932;25.904;2023-02-13T05:51:52;102744.13;;;-3.39;90.03
8705;BME280;4389;41.932;25.904;2023-02-13T05:54:19;102744.06;;;-3.45;90.80
8705;BME280;4389;41.932;25.904;2023-02-13T05:56:45;102749.41;;;-3.11;91.26
8705;BME280;4389;41.932;25.904;2023-02-13T05:59:13;102746.03;;;-2.93;90.58
8705;BME280;4389;41.932;25.904;2023-02-13T06:01:39;102745.19;;;-2.86;90.33
8705;BME280;4389;41.932;25.904;2023-02-13T06:04:06;102753.00;;;-2.53;89.94
8705;BME280;4389;41.932;25.904;2023-02-13T06:06:34;102754.72;;;-2.31;89.06
8705;BME280;4389;41.932;25.904;2023-02-13T06:09:01;102759.06;;;-2.15;88.93
8705;BME280;4389;41.932;25.904;2023-02-13T06:11:28;102754.72;;;-2.10;88.64
8705;BME280;4389;41.932;25.904;2023-02-13T06:13:55;102755.63;;;-2.20;88.38
8705;BME280;4389;41.932;25.904;2023-02-13T06:16:22;102757.31;;;-2.30;89.02
8705;BME280;4389;41.932;25.904;2023-02-13T06:18:48;102756.47;;;-2.24;89.03
8705;BME280;4389;41.932;25.904;2023-02-13T06:21:15;102761.63;;;-2.03;89.50
8705;BME280;4389;41.932;25.904;2023-02-13T06:23:43;102759.91;;;-1.80;88.86
8705;BME280;4389;41.932;25.904;2023-02-13T06:26:10;102756.41;;;-1.64;88.78
8705;BME280;4389;41.932;25.904;2023-02-13T06:28:37;102765.91;;;-1.60;88.29
8705;BME280;4389;41.932;25.904;2023-02-13T06:31:04;102756.34;;;-1.46;88.43
8705;BME280;4389;41.932;25.904;2023-02-13T06:33:31;102758.06;;;-1.38;86.97
8705;BME280;4389;41.932;25.904;2023-02-13T06:35:57;102768.41;;;-1.27;87.02
8705;BME280;4389;41.932;25.904;2023-02-13T06:38:24;102764.97;;;-1.29;86.59
8705;BME280;4389;41.932;25.904;2023-02-13T06:40:58;102766.69;;;-1.28;87.64
8705;BME280;4389;41.932;25.904;2023-02-13T06:43:26;102764.94;;;-1.26;88.22
8705;BME280;4389;41.932;25.904;2023-02-13T06:45:53;102776.97;;;-1.01;88.45
8705;BME280;4389;41.932;25.904;2023-02-13T06:48:19;102775.25;;;-1.05;88.68
8705;BME280;4389;41.932;25.904;2023-02-13T06:50:46;102766.50;;;-0.86;88.90
8705;BME280;4389;41.932;25.904;2023-02-13T06:53:13;102775.09;;;-0.71;88.70
8705;BME280;4389;41.932;25.904;2023-02-13T06:55:40;102773.22;;;-0.52;88.11
8705;BME280;4389;41.932;25.904;2023-02-13T06:58:08;102773.16;;;-0.46;88.62
8705;BME280;4389;41.932;25.904;2023-02-13T07:00:35;102763.53;;;-0.32;88.22
8705;BME280;4389;41.932;25.904;2023-02-13T07:03:04;102770.41;;;-0.25;88.16
8705;BME280;4389;41.932;25.904;2023-02-13T07:05:32;102760.81;;;-0.14;87.88
8705;BME280;4389;41.932;25.904;2023-02-13T07:07:58;102767.75;;;-0.16;87.50
8705;BME280;4389;41.932;25.904;2023-02-13T07:10:25;102762.47;;;-0.08;87.43
8705;BME280;4389;41.932;25.904;2023-02-13T07:12:52;102770.19;;;0.04;86.60
8705;BME280;4389;41.932;25.904;2023-02-13T07:15:20;102775.34;;;0.09;86.47
8705;BME280;4389;41.932;25.904;2023-02-13T07:17:47;102764.63;;;0.37;86.71
8705;BME280;4389;41.932;25.904;2023-02-13T07:20:14;102768.91;;;0.46;86.69
8705;BME280;4389;41.932;25.904;2023-02-13T07:22:41;102765.41;;;0.48;87.62
8705;BME280;4389;41.932;25.904;2023-02-13T07:25:08;102766.16;;;0.58;88.15
8705;BME280;4389;41.932;25.904;2023-02-13T07:27:34;102772.22;;;0.61;88.21
8705;BME280;4389;41.932;25.904;2023-02-13T07:30:02;102774.56;;;0.81;88.35
8705;BME280;4389;41.932;25.904;2023-02-13T07:32:30;102773.69;;;0.83;87.38
8705;BME280;4389;41.932;25.904;2023-02-13T07:34:57;102768.34;;;0.92;88.16
8705;BME280;4389;41.932;25.904;2023-02-13T07:37:23;102772.53;;;1.04;88.52
8705;BME280;4389;41.932;25.904;2023-02-13T07:39:52;102764.66;;;1.08;87.68
8705;BME280;4389;41.932;25.904;2023-02-13T07:42:19;102767.25;;;1.10;87.34
8705;BME280;4389;41.932;25.904;2023-02-13T07:44:46;102755.88;;;1.15;87.43
8705;BME280;4389;41.932;25.904;2023-02-13T07:47:13;102758.94;;;1.44;87.82
8705;BME280;4389;41.932;25.904;2023-02-13T07:49:41;102751.69;;;1.64;86.72
8705;BME280;4389;41.932;25.904;2023-02-13T07:52:09;102748.81;;;1.81;86.06
8705;BME280;4389;41.932;25.904;2023-02-13T07:54:36;102751.31;;;1.87;85.36
8705;BME280;4389;41.932;25.904;2023-02-13T07:57:11;102750.06;;;2.09;84.57
8705;BME280;4389;41.932;25.904;2023-02-13T07:59:38;102743.31;;;1.97;83.42
8705;BME280;4389;41.932;25.904;2023-02-13T08:02:05;102736.75;;;2.24;83.50
8705;BME280;4389;41.932;25.904;2023-02-13T08:04:32;102730.97;;;2.52;82.24
8705;BME280;4389;41.932;25.904;2023-02-13T08:07:00;102731.38;;;2.31;82.14
8705;BME280;4389;41.932;25.904;2023-02-13T08:09:27;102735.25;;;2.56;81.12
8705;BME280;4389;41.932;25.904;2023-02-13T08:12:12;102741.13;;;2.67;79.83
8705;BME280;4389;41.932;25.904;2023-02-13T08:14:38;102734.84;;;2.76;80.49
8705;BME280;4389;41.932;25.904;2023-02-13T08:17:05;102738.25;;;2.79;79.73
8705;BME280;4389;41.932;25.904;2023-02-13T08:19:32;102732.56;;;3.02;77.87
8705;BME280;4389;41.932;25.904;2023-02-13T08:21:59;102728.22;;;3.01;77.55
8705;BME280;4389;41.932;25.904;2023-02-13T08:24:27;102736.53;;;3.19;77.60
8705;BME280;4389;41.932;25.904;2023-02-13T08:26:54;102730.72;;;3.43;75.40
8705;BME280;4389;41.932;25.904;2023-02-13T08:29:21;102723.63;;;3.48;75.40
8705;BME280;4389;41.932;25.904;2023-02-13T08:31:48;102722.69;;;3.52;74.14
8705;BME280;4389;41.932;25.904;2023-02-13T08:34:15;102720.66;;;3.63;73.78
8705;BME280;4389;41.932;25.904;2023-02-13T08:36:42;102714.88;;;3.86;72.90
8705;BME280;4389;41.932;25.904;2023-02-13T08:39:09;102713.28;;;4.12;71.78
8705;BME280;4389;41.932;25.904;2023-02-13T08:41:37;102710.84;;;4.38;69.24
8705;BME280;4389;41.932;25.904;2023-02-13T08:44:04;102708.00;;;4.45;68.65
8705;BME280;4389;41.932;25.904;2023-02-13T08:46:31;102703.78;;;4.40;64.16
8705;BME280;4389;41.932;25.904;2023-02-13T08:48:58;102702.25;;;4.33;61.53
8705;BME280;4389;41.932;25.904;2023-02-13T08:51:24;102703.63;;;4.46;61.57
8705;BME280;4389;41.932;25.904;2023-02-13T08:53:51;102702.38;;;4.59;58.04
8705;BME280;4389;41.932;25.904;2023-02-13T08:56:18;102707.53;;;4.62;58.07
8705;BME280;4389;41.932;25.904;2023-02-13T08:58:48;102698.38;;;4.76;56.89
8705;BME280;4389;41.932;25.904;2023-02-13T09:01:17;102696.25;;;4.89;56.72
8705;BME280;4389;41.932;25.904;2023-02-13T09:03:44;102696.97;;;4.94;55.13
8705;BME280;4389;41.932;25.904;2023-02-13T09:06:10;102681.63;;;5.09;54.48
8705;BME280;4389;41.932;25.904;2023-02-13T09:08:37;102688.09;;;5.25;53.67
8705;BME280;4389;41.932;25.904;2023-02-13T09:11:04;102686.97;;;5.34;52.70
8705;BME280;4389;41.932;25.904;2023-02-13T09:13:32;102678.78;;;5.43;52.37
8705;BME280;4389;41.932;25.904;2023-02-13T09:16:03;102674.19;;;5.51;51.78
8705;BME280;4389;41.932;25.904;2023-02-13T09:18:30;102680.03;;;5.59;51.29
8705;BME280;4389;41.932;25.904;2023-02-13T09:20:58;102680.53;;;5.70;51.02
8705;BME280;4389;41.932;25.904;2023-02-13T09:23:25;102678.25;;;5.87;51.64
8705;BME280;4389;41.932;25.904;2023-02-13T09:25:52;102667.81;;;5.84;50.99
8705;BME280;4389;41.932;25.904;2023-02-13T09:28:19;102662.16;;;5.96;50.75
8705;BME280;4389;41.932;25.904;2023-02-13T09:30:46;102665.56;;;5.98;51.39
8705;BME280;4389;41.932;25.904;2023-02-13T09:33:15;102664.28;;;6.09;51.96
8705;BME280;4389;41.932;25.904;2023-02-13T09:35:42;102663.53;;;6.06;52.37
8705;BME280;4389;41.932;25.904;2023-02-13T09:38:09;102662.72;;;6.28;52.16
8705;BME280;4389;41.932;25.904;2023-02-13T09:40:42;102657.66;;;6.47;51.18
8705;BME280;4389;41.932;25.904;2023-02-13T09:43:14;102654.09;;;6.71;51.64
8705;BME280;4389;41.932;25.904;2023-02-13T09:45:44;102639.34;;;6.90;51.02
8705;BME280;4389;41.932;25.904;2023-02-13T09:48:22;102629.50;;;6.95;51.64
8705;BME280;4389;41.932;25.904;2023-02-13T09:50:51;102627.38;;;7.04;51.54
8705;BME280;4389;41.932;25.904;2023-02-13T09:53:21;102634.22;;;6.87;51.79
8705;BME280;4389;41.932;25.904;2023-02-13T09:55:57;102631.25;;;6.73;51.96
8705;BME280;4389;41.932;25.904;2023-02-13T09:58:38;102628.34;;;7.02;51.42
8705;BME280;4389;41.932;25.904;2023-02-13T10:01:18;102621.84;;;7.10;51.48
8705;BME280;4389;41.932;25.904;2023-02-13T10:03:51;102616.91;;;7.03;51.21
8705;BME280;4389;41.932;25.904;2023-02-13T10:06:25;102611.47;;;7.07;51.61
8705;BME280;4389;41.932;25.904;2023-02-13T10:09:05;102613.91;;;7.12;51.88
8705;BME280;4389;41.932;25.904;2023-02-13T10:12:00;102606.13;;;7.09;51.71
8705;BME280;4389;41.932;25.904;2023-02-13T10:14:34;102605.72;;;7.19;51.16
8705;BME280;4389;41.932;25.904;2023-02-13T10:17:08;102609.19;;;7.20;51.32
8705;BME280;4389;41.932;25.904;2023-02-13T10:19:40;102594.78;;;7.07;52.03
8705;BME280;4389;41.932;25.904;2023-02-13T10:22:13;102595.06;;;7.01;51.79
8705;BME280;4389;41.932;25.904;2023-02-13T10:24:46;102588.88;;;7.02;52.16
8705;BME280;4389;41.932;25.904;2023-02-13T10:27:21;102587.28;;;6.98;52.10
8705;BME280;4389;41.932;25.904;2023-02-13T10:29:54;102578.91;;;7.10;52.39
8705;BME280;4389;41.932;25.904;2023-02-13T10:32:37;102567.31;;;7.14;52.18
8705;BME280;4389;41.932;25.904;2023-02-13T10:35:17;102567.00;;;7.21;51.95
8705;BME280;4389;41.932;25.904;2023-02-13T10:37:46;102565.78;;;7.30;51.43
8705;BME280;4389;41.932;25.904;2023-02-13T10:40:16;102569.44;;;7.26;51.80
8705;BME280;4389;41.932;25.904;2023-02-13T10:42:45;102564.66;;;7.35;50.94
8705;BME280;4389;41.932;25.904;2023-02-13T10:45:30;102556.56;;;7.40;50.97
8705;BME280;4389;41.932;25.904;2023-02-13T10:48:06;102548.59;;;7.41;51.35
8705;BME280;4389;41.932;25.904;2023-02-13T10:50:42;102538.53;;;7.51;50.14
8705;BME280;4389;41.932;25.904;2023-02-13T10:53:17;102535.50;;;7.40;50.96
8705;BME280;4389;41.932;25.904;2023-02-13T10:56:13;102527.50;;;7.43;51.07
8705;BME280;4389;41.932;25.904;2023-02-13T10:58:56;102514.28;;;7.63;50.55
8705;BME280;4389;41.932;25.904;2023-02-13T11:01:32;102519.44;;;7.66;50.13
8705;BME280;4389;41.932;25.904;2023-02-13T11:04:05;102504.16;;;7.74;50.46
8705;BME280;4389;41.932;25.904;2023-02-13T11:06:34;102499.72;;;7.74;50.16
8705;BME280;4389;41.932;25.904;2023-02-13T11:09:04;102492.91;;;7.89;49.91
8705;BME280;4389;41.932;25.904;2023-02-13T11:11:34;102495.34;;;7.93;50.09
8705;BME280;4389;41.932;25.904;2023-02-13T11:14:10;102489.06;;;7.96;49.95
8705;BME280;4389;41.932;25.904;2023-02-13T11:16:40;102484.19;;;8.07;49.60
8705;BME280;4389;41.932;25.904;2023-02-13T11:19:16;102478.28;;;8.20;49.88
8705;BME280;4389;41.932;25.904;2023-02-13T11:21:45;102483.41;;;8.23;49.06
8705;BME280;4389;41.932;25.904;2023-02-13T11:24:20;102466.75;;;8.23;49.17
8705;BME280;4389;41.932;25.904;2023-02-13T11:26:55;102465.16;;;8.37;48.70
8705;BME280;4389;41.932;25.904;2023-02-13T11:29:26;102459.59;;;8.06;49.60
8705;BME280;4389;41.932;25.904;2023-02-13T11:32:17;102456.91;;;8.26;49.26
8705;BME280;4389;41.932;25.904;2023-02-13T11:34:44;102447.22;;;8.27;48.84
8705;BME280;4389;41.932;25.904;2023-02-13T11:37:21;102445.41;;;8.46;49.13
8705;BME280;4389;41.932;25.904;2023-02-13T11:39:50;102449.94;;;8.61;48.48
8705;BME280;4389;41.932;25.904;2023-02-13T11:42:23;102446.06;;;8.51;48.84
8705;BME280;4389;41.932;25.904;2023-02-13T11:44:52;102441.56;;;8.70;49.62
8705;BME280;4389;41.932;25.904;2023-02-13T11:47:35;102442.97;;;8.77;47.54
8705;BME280;4389;41.932;25.904;2023-02-13T11:50:04;102439.72;;;8.72;48.23
8705;BME280;4389;41.932;25.904;2023-02-13T11:52:34;102440.56;;;8.72;48.03
8705;BME280;4389;41.932;25.904;2023-02-13T11:55:03;102432.13;;;8.82;47.64
8705;BME280;4389;41.932;25.904;2023-02-13T11:57:31;102430.41;;;8.98;47.52
8705;BME280;4389;41.932;25.904;2023-02-13T11:59:59;102422.41;;;8.83;47.27
8705;BME280;4389;41.932;25.904;2023-02-13T12:02:29;102436.00;;;8.76;47.83
8705;BME280;4389;41.932;25.904;2023-02-13T12:05:15;102428.69;;;8.81;47.33
8705;BME280;4389;41.932;25.904;2023-02-13T12:07:45;102418.31;;;8.94;47.53
8705;BME280;4389;41.932;25.904;2023-02-13T12:10:17;102414.72;;;8.95;47.43
8705;BME280;4389;41.932;25.904;2023-02-13T12:12:50;102406.50;;;9.01;47.17
8705;BME280;4389;41.932;25.904;2023-02-13T12:15:22;102403.56;;;9.07;46.90
8705;BME280;4389;41.932;25.904;2023-02-13T12:17:57;102393.44;;;9.15;47.60
8705;BME280;4389;41.932;25.904;2023-02-13T12:20:35;102400.38;;;9.33;46.65
8705;BME280;4389;41.932;25.904;2023-02-13T12:23:14;102396.53;;;9.23;46.86
8705;BME280;4389;41.932;25.904;2023-02-13T12:25:55;102398.41;;;9.21;47.11
8705;BME280;4389;41.932;25.904;2023-02-13T12:28:37;102402.00;;;9.20;46.42
8705;BME280;4389;41.932;25.904;2023-02-13T12:31:31;102394.97;;;9.19;47.15
8705;BME280;4389;41.932;25.904;2023-02-13T12:34:28;102391.38;;;9.37;46.41
8705;BME280;4389;41.932;25.904;2023-02-13T12:37:11;102388.25;;;9.46;46.88
8705;BME280;4389;41.932;25.904;2023-02-13T12:39:51;102387.09;;;9.52;46.54
8705;BME280;4389;41.932;25.904;2023-02-13T12:42:30;102382.31;;;9.58;46.75
8705;BME280;4389;41.932;25.904;2023-02-13T12:45:12;102380.59;;;9.57;45.69
8705;BME280;4389;41.932;25.904;2023-02-13T12:47:55;102366.44;;;9.58;46.50
8705;BME280;4389;41.932;25.904;2023-02-13T12:50:39;102372.25;;;9.49;46.64
8705;BME280;4389;41.932;25.904;2023-02-13T12:53:26;102363.88;;;9.41;46.94
8705;BME280;4389;41.932;25.904;2023-02-13T12:56:13;102356.38;;;9.49;46.45
8705;BME280;4389;41.932;25.904;2023-02-13T12:59:04;102352.81;;;9.50;46.10
8705;BME280;4389;41.932;25.904;2023-02-13T13:04:35;102352.81;;;9.66;46.15
8705;BME280;4389;41.932;25.904;2023-02-13T13:07:25;102350.69;;;9.72;46.22
8705;BME280;4389;41.932;25.904;2023-02-13T13:10:21;102342.50;;;9.46;47.15
8705;BME280;4389;41.932;25.904;2023-02-13T13:12:59;102340.53;;;9.65;46.14
8705;BME280;4389;41.932;25.904;2023-02-13T13:15:34;102334.41;;;9.64;46.13
8705;BME280;4389;41.932;25.904;2023-02-13T13:18:18;102338.34;;;9.57;46.25
8705;BME280;4389;41.932;25.904;2023-02-13T13:21:11;102339.50;;;9.67;45.72
8705;BME280;4389;41.932;25.904;2023-02-13T13:23:45;102340.63;;;9.63;45.87
8705;BME280;4389;41.932;25.904;2023-02-13T13:26:21;102333.56;;;9.64;45.85
8705;BME280;4389;41.932;25.904;2023-02-13T13:28:54;102337.31;;;9.60;46.53
8705;BME280;4389;41.932;25.904;2023-02-13T13:31:23;102339.84;;;9.61;46.34
8705;BME280;4389;41.932;25.904;2023-02-13T13:33:51;102333.41;;;9.67;46.16
8705;BME280;4389;41.932;25.904;2023-02-13T13:36:30;102342.34;;;9.64;45.83